createdAt,value
2023-03-26T00:00:00.693Z,5.15
2023-03-26T00:02:29.861Z,5.20
2023-03-26T00:04:58.323Z,5.32
2023-03-26T00:07:28.144Z,5.37
2023-03-26T00:09:58.180Z,5.40
2023-03-26T00:12:26.847Z,5.22
2023-03-26T00:14:57.260Z,5.14
2023-03-26T00:17:27.126Z,5.06
2023-03-26T00:19:57.320Z,5.00
2023-03-26T00:22:25.696Z,4.92
2023-03-26T00:24:54.092Z,4.81
2023-03-26T00:27:22.436Z,4.83
2023-03-26T00:29:50.730Z,4.96
2023-03-26T00:32:20.394Z,5.07
2023-03-26T00:34:48.799Z,5.20
2023-03-26T00:37:18.442Z,5.24
2023-03-26T00:39:49.325Z,5.24
2023-03-26T00:42:17.587Z,5.35
2023-03-26T00:44:46.306Z,5.33
2023-03-26T00:47:14.991Z,5.28
2023-03-26T00:49:46.995Z,5.15
2023-03-26T00:52:18.918Z,5.12
2023-03-26T00:54:47.408Z,5.10
2023-03-26T00:57:25.619Z,5.10
2023-03-26T01:00:16.836Z,5.14
2023-03-26T01:02:46.369Z,5.27
2023-03-26T01:05:53.321Z,5.02
2023-03-26T01:08:26.310Z,4.99
2023-03-26T01:11:03.148Z,4.96
2023-03-26T01:13:33.776Z,4.77
2023-03-26T01:16:03.344Z,4.73
2023-03-26T01:18:34.383Z,4.59
2023-03-26T01:21:08.259Z,4.67
2023-03-26T01:23:42.583Z,4.66
2023-03-26T01:26:28.683Z,4.83
2023-03-26T01:28:58.902Z,4.95
2023-03-26T01:31:37.311Z,4.98
2023-03-26T01:34:12.594Z,5.07
2023-03-26T01:36:46.979Z,4.99
2023-03-26T01:39:18.840Z,4.90
2023-03-26T01:41:49.348Z,4.89
2023-03-26T01:44:22.324Z,5.00
2023-03-26T01:46:51.740Z,5.06
2023-03-26T01:49:21.415Z,4.91
2023-03-26T01:51:49.985Z,4.64
2023-03-26T01:54:21.516Z,4.60
2023-03-26T01:57:02.988Z,4.48
2023-03-26T01:59:43.066Z,4.48
2023-03-26T02:02:13.544Z,4.49
2023-03-26T02:04:46.644Z,4.49
2023-03-26T02:07:20.999Z,4.47
2023-03-26T02:09:51.481Z,4.58
2023-03-26T02:12:21.581Z,4.60
2023-03-26T02:14:50.446Z,4.66
2023-03-26T02:17:40.556Z,4.75
2023-03-26T02:20:10.682Z,4.79
2023-03-26T02:22:41.108Z,4.70
2023-03-26T02:25:10.735Z,4.53
2023-03-26T02:27:40.713Z,4.35
2023-03-26T02:30:13.087Z,4.36
2023-03-26T02:32:41.536Z,4.35
2023-03-26T02:35:10.526Z,4.30
2023-03-26T02:37:39.124Z,4.29
2023-03-26T02:40:11.912Z,4.46
2023-03-26T02:42:42.442Z,4.69
2023-03-26T02:45:11.149Z,4.66
2023-03-26T02:47:39.635Z,4.70
2023-03-26T02:50:09.106Z,4.75
2023-03-26T02:52:37.969Z,4.73
2023-03-26T02:55:07.548Z,4.75
2023-03-26T02:57:35.969Z,4.88
2023-03-26T03:00:14.272Z,4.85
2023-03-26T03:02:44.518Z,4.80
2023-03-26T03:05:12.858Z,4.73
2023-03-26T03:07:41.525Z,4.78
2023-03-26T03:10:10.749Z,4.88
2023-03-26T03:12:40.330Z,4.92
2023-03-26T03:15:11.343Z,4.74
2023-03-26T03:17:40.695Z,4.63
2023-03-26T03:20:11.538Z,4.42
2023-03-26T03:22:40.034Z,4.38
2023-03-26T03:25:09.763Z,4.32
2023-03-26T03:27:40.021Z,4.32
2023-03-26T03:30:13.449Z,4.55
2023-03-26T03:32:41.993Z,4.66
2023-03-26T03:35:10.859Z,4.86
2023-03-26T03:37:39.208Z,4.89
2023-03-26T03:40:11.000Z,4.92
2023-03-26T03:42:39.429Z,5.02
2023-03-26T03:45:08.830Z,4.98
2023-03-26T03:47:38.750Z,5.08
2023-03-26T03:50:09.079Z,5.09
2023-03-26T03:52:37.334Z,5.04
2023-03-26T03:55:07.044Z,5.08
2023-03-26T03:57:35.327Z,5.23
2023-03-26T04:00:09.217Z,5.11
2023-03-26T04:02:39.023Z,5.03
2023-03-26T04:05:08.056Z,4.87
2023-03-26T04:07:36.439Z,4.97
2023-03-26T04:10:05.487Z,5.00
2023-03-26T04:12:33.803Z,5.01
2023-03-26T04:15:02.299Z,5.06
2023-03-26T04:17:32.570Z,5.07
2023-03-26T04:20:14.669Z,5.10
2023-03-26T04:22:43.932Z,5.22
2023-03-26T04:25:13.117Z,5.35
2023-03-26T04:27:43.560Z,5.37
2023-03-26T04:30:15.729Z,5.45
2023-03-26T04:32:44.959Z,5.43
2023-03-26T04:35:16.459Z,5.52
2023-03-26T04:37:46.269Z,5.67
2023-03-26T04:40:16.810Z,5.68
2023-03-26T04:42:46.438Z,5.48
2023-03-26T04:45:15.456Z,5.29
2023-03-26T04:47:43.803Z,5.19
2023-03-26T04:50:14.486Z,5.19
2023-03-26T04:52:45.170Z,5.23
2023-03-26T04:55:21.907Z,5.22
2023-03-26T04:57:53.552Z,5.33
2023-03-26T05:00:22.148Z,5.46
2023-03-26T05:02:51.225Z,5.68
2023-03-26T05:05:20.949Z,5.95
2023-03-26T05:07:49.246Z,6.13
2023-03-26T05:10:20.376Z,6.13
2023-03-26T05:12:48.798Z,6.17
2023-03-26T05:15:19.007Z,6.19
2023-03-26T05:17:48.609Z,6.25
2023-03-26T05:20:22.072Z,6.31
2023-03-26T05:22:51.156Z,6.26
2023-03-26T05:25:20.433Z,6.26
2023-03-26T05:27:49.504Z,6.28
2023-03-26T05:30:20.050Z,6.27
2023-03-26T05:32:50.148Z,6.20
2023-03-26T05:35:19.422Z,6.19
2023-03-26T05:37:49.756Z,6.21
2023-03-26T05:40:18.309Z,6.17
2023-03-26T05:42:46.656Z,6.16
2023-03-26T05:45:16.327Z,6.21
2023-03-26T05:47:44.898Z,6.26
2023-03-26T05:50:13.378Z,6.25
2023-03-26T05:52:41.676Z,6.42
2023-03-26T05:55:11.854Z,6.40
2023-03-26T05:57:42.052Z,6.34
2023-03-26T06:00:12.321Z,6.30
2023-03-26T06:02:42.371Z,6.35
2023-03-26T06:05:12.677Z,6.44
2023-03-26T06:07:41.023Z,6.49
2023-03-26T06:10:11.459Z,6.39
2023-03-26T06:12:46.835Z,6.44
2023-03-26T06:15:15.145Z,6.44
2023-03-26T06:17:43.456Z,6.31
2023-03-26T06:20:13.346Z,6.20
2023-03-26T06:22:41.618Z,6.18
2023-03-26T06:25:11.592Z,6.19
2023-03-26T06:27:40.001Z,6.31
2023-03-26T06:30:10.216Z,6.30
2023-03-26T06:32:39.167Z,6.27
2023-03-26T06:35:09.756Z,6.28
2023-03-26T06:37:38.095Z,6.26
2023-03-26T06:40:07.683Z,6.40
2023-03-26T06:43:07.707Z,6.39
2023-03-26T06:45:25.762Z,6.75
2023-03-26T06:47:54.285Z,6.62
2023-03-26T06:50:22.886Z,6.64
2023-03-26T06:52:51.485Z,6.62
2023-03-26T06:55:20.031Z,6.65
2023-03-26T06:57:51.589Z,6.67
2023-03-26T07:00:21.505Z,6.66
2023-03-26T07:02:50.374Z,6.73
2023-03-26T07:05:18.811Z,6.75
2023-03-26T07:07:47.685Z,6.81
2023-03-26T07:10:16.137Z,6.89
2023-03-26T07:12:44.747Z,6.86
2023-03-26T07:15:14.584Z,6.95
2023-03-26T07:17:43.002Z,7.04
2023-03-26T07:20:12.544Z,7.10
2023-03-26T07:22:41.702Z,7.16
2023-03-26T07:25:11.803Z,7.19
2023-03-26T07:27:48.517Z,7.17
2023-03-26T07:30:22.844Z,7.12
2023-03-26T07:32:54.292Z,7.08
2023-03-26T07:35:25.744Z,7.12
2023-03-26T07:38:02.112Z,7.13
2023-03-26T07:40:49.587Z,7.16
2023-03-26T07:43:29.237Z,7.15
2023-03-26T07:46:01.146Z,7.14
2023-03-26T07:48:37.387Z,7.10
2023-03-26T07:51:07.135Z,7.17
2023-03-26T07:53:35.912Z,7.21
2023-03-26T07:56:08.054Z,7.20
2023-03-26T07:58:55.894Z,7.24
2023-03-26T08:01:40.065Z,7.30
2023-03-26T08:04:40.052Z,7.53
2023-03-26T08:07:12.791Z,7.33
2023-03-26T08:09:55.926Z,7.22
2023-03-26T08:12:29.304Z,7.14
2023-03-26T08:14:58.724Z,7.12
2023-03-26T08:17:33.333Z,7.17
2023-03-26T08:20:09.526Z,7.17
2023-03-26T08:22:41.284Z,7.12
2023-03-26T08:25:18.965Z,7.09
2023-03-26T08:27:56.094Z,7.04
2023-03-26T08:30:26.161Z,7.02
2023-03-26T08:32:58.924Z,7.04
2023-03-26T08:35:31.596Z,7.05
2023-03-26T08:38:00.053Z,7.06
2023-03-26T08:40:51.165Z,7.01
2023-03-26T08:44:05.086Z,6.98
2023-03-26T08:46:58.768Z,6.98
2023-03-26T08:49:53.199Z,7.14
2023-03-26T08:52:56.453Z,6.92
2023-03-26T08:55:38.940Z,6.96
2023-03-26T08:58:43.550Z,6.98
2023-03-26T09:01:34.739Z,7.04
2023-03-26T09:04:46.625Z,7.02
2023-03-26T09:07:38.089Z,7.04
2023-03-26T09:10:24.799Z,7.01
2023-03-26T09:13:22.279Z,6.99
2023-03-26T09:16:09.751Z,7.01
2023-03-26T09:19:06.963Z,7.02
2023-03-26T09:21:54.971Z,7.10
2023-03-26T09:25:14.399Z,7.10
2023-03-26T09:27:57.200Z,7.14
2023-03-26T09:30:40.744Z,7.12
2023-03-26T09:33:38.924Z,7.18
2023-03-26T09:36:21.886Z,7.21
2023-03-26T09:39:03.602Z,7.23
2023-03-26T09:41:39.879Z,7.11
2023-03-26T09:44:35.580Z,7.19
2023-03-26T09:47:37.652Z,7.23
2023-03-26T09:50:31.787Z,7.16
2023-03-26T09:53:19.161Z,7.20
2023-03-26T09:55:56.784Z,7.22
2023-03-26T09:58:47.691Z,7.24
2023-03-26T10:01:20.475Z,7.29
2023-03-26T10:04:00.143Z,7.30
2023-03-26T10:06:37.337Z,7.37
2023-03-26T10:09:22.770Z,7.38
2023-03-26T10:12:03.259Z,7.30
2023-03-26T10:14:36.946Z,7.30
2023-03-26T10:17:32.201Z,7.28
2023-03-26T10:20:09.864Z,7.29
2023-03-26T10:22:47.724Z,7.27
2023-03-26T10:25:38.609Z,7.28
2023-03-26T10:28:21.826Z,7.26
2023-03-26T10:31:16.861Z,7.33
2023-03-26T10:33:56.467Z,7.30
2023-03-26T10:36:31.077Z,7.33
2023-03-26T10:39:10.653Z,7.32
2023-03-26T10:42:23.168Z,7.39
2023-03-26T10:45:06.381Z,7.43
2023-03-26T10:48:09.600Z,7.45
2023-03-26T10:50:48.358Z,7.43
2023-03-26T10:53:28.003Z,7.45
2023-03-26T10:55:59.761Z,7.52
2023-03-26T10:58:29.534Z,7.48
2023-03-26T11:01:24.070Z,7.51
2023-03-26T11:03:54.417Z,7.54
2023-03-26T11:06:33.871Z,7.53
2023-03-26T11:09:13.408Z,7.59
2023-03-26T11:11:46.250Z,7.60
2023-03-26T11:14:27.940Z,7.63
2023-03-26T11:17:06.869Z,7.63
2023-03-26T11:19:42.522Z,7.66
2023-03-26T11:22:19.119Z,7.71
2023-03-26T11:25:11.853Z,7.66
2023-03-26T11:27:52.176Z,7.68
2023-03-26T11:30:28.270Z,7.68
2023-03-26T11:32:58.896Z,7.72
2023-03-26T11:35:39.827Z,7.77
2023-03-26T11:38:18.200Z,7.78
2023-03-26T11:40:51.142Z,7.79
2023-03-26T11:43:23.204Z,7.82
2023-03-26T11:45:54.003Z,7.80
2023-03-26T11:48:27.899Z,7.82
2023-03-26T11:51:00.589Z,7.79
2023-03-26T11:53:34.702Z,7.75
2023-03-26T11:56:05.354Z,7.82
2023-03-26T11:58:36.908Z,7.72
2023-03-26T12:01:07.002Z,7.74
2023-03-26T12:03:38.329Z,7.72
2023-03-26T12:06:07.294Z,7.78
2023-03-26T12:08:41.077Z,7.73
2023-03-26T12:11:11.054Z,7.81
2023-03-26T12:13:42.009Z,7.85
2023-03-26T12:16:14.332Z,7.87
2023-03-26T12:18:44.105Z,7.79
2023-03-26T12:21:14.403Z,7.83
2023-03-26T12:23:56.393Z,7.84
2023-03-26T12:26:45.061Z,7.86
2023-03-26T12:29:14.663Z,7.75
2023-03-26T12:31:50.962Z,7.81
2023-03-26T12:34:21.284Z,7.83
2023-03-26T12:36:52.611Z,7.83
2023-03-26T12:40:06.601Z,7.84
2023-03-26T12:44:46.871Z,7.82
2023-03-26T12:45:18.173Z,7.77
2023-03-26T12:48:01.203Z,7.76
2023-03-26T12:50:55.098Z,7.78
2023-03-26T12:53:39.835Z,7.79
2023-03-26T12:56:20.021Z,7.72
2023-03-26T12:59:01.204Z,7.74
2023-03-26T13:01:38.575Z,7.71
2023-03-26T13:04:29.943Z,7.73
2023-03-26T13:07:01.800Z,7.74
2023-03-26T13:09:42.276Z,7.64
2023-03-26T13:12:20.619Z,7.66
2023-03-26T13:15:04.189Z,7.68
2023-03-26T13:17:33.794Z,7.65
2023-03-26T13:20:08.275Z,7.64
2023-03-26T13:22:43.619Z,7.66
2023-03-26T13:25:23.447Z,7.66
2023-03-26T13:27:59.798Z,7.63
2023-03-26T13:30:34.014Z,7.60
2023-03-26T13:33:14.776Z,7.67
2023-03-26T13:35:48.800Z,7.68
2023-03-26T13:38:21.180Z,7.64
2023-03-26T13:40:56.929Z,7.63
2023-03-26T13:43:39.648Z,7.63
2023-03-26T13:46:15.316Z,7.68
2023-03-26T13:48:50.480Z,7.62
2023-03-26T13:51:21.732Z,7.65
2023-03-26T13:53:54.729Z,7.61
2023-03-26T13:56:27.357Z,7.56
2023-03-26T13:59:01.742Z,7.57
2023-03-26T14:01:35.379Z,7.58
2023-03-26T14:04:08.132Z,7.57
2023-03-26T14:06:43.693Z,7.57
2023-03-26T14:09:17.884Z,7.55
2023-03-26T14:12:21.436Z,7.47
2023-03-26T14:14:54.919Z,7.52
2023-03-26T14:17:27.155Z,7.46
2023-03-26T14:20:24.038Z,7.39
2023-03-26T14:23:02.922Z,7.39
2023-03-26T14:25:50.289Z,7.39
2023-03-26T14:28:32.568Z,7.39
2023-03-26T14:31:10.660Z,7.35
2023-03-26T14:34:02.478Z,7.35
2023-03-26T14:36:45.600Z,7.36
2023-03-26T14:39:47.355Z,7.37
2023-03-26T14:42:20.742Z,7.38
2023-03-26T14:45:07.443Z,7.36
2023-03-26T14:47:42.023Z,7.34
2023-03-26T14:50:37.091Z,7.29
2023-03-26T14:53:13.375Z,7.28
2023-03-26T14:56:12.458Z,7.27
2023-03-26T14:59:32.729Z,7.24
2023-03-26T15:02:40.628Z,7.24
2023-03-26T15:05:48.304Z,7.19
2023-03-26T15:08:55.984Z,7.17
2023-03-26T15:11:29.601Z,7.18
2023-03-26T15:14:12.073Z,7.15
2023-03-26T15:17:16.937Z,7.22
2023-03-26T15:20:20.121Z,7.23
2023-03-26T15:23:21.133Z,7.20
2023-03-26T15:26:07.930Z,7.26
2023-03-26T15:29:04.845Z,7.25
2023-03-26T15:32:03.378Z,7.26
2023-03-26T15:35:09.821Z,7.21
2023-03-26T15:38:12.844Z,7.20
2023-03-26T15:40:59.058Z,7.15
2023-03-26T15:43:30.247Z,7.14
2023-03-26T15:46:27.436Z,7.21
2023-03-26T15:49:02.751Z,7.16
2023-03-26T15:51:47.162Z,7.13
2023-03-26T15:54:24.791Z,7.13
2023-03-26T15:57:16.855Z,7.19
2023-03-26T15:59:57.712Z,7.15
2023-03-26T16:02:36.541Z,7.11
2023-03-26T16:05:29.014Z,7.12
2023-03-26T16:08:04.580Z,7.14
2023-03-26T16:10:41.037Z,7.12
2023-03-26T16:13:30.306Z,7.15
2023-03-26T16:16:23.946Z,7.14
2023-03-26T16:18:59.591Z,7.16
2023-03-26T16:21:55.855Z,7.14
2023-03-26T16:24:30.602Z,7.12
2023-03-26T16:27:32.349Z,7.14
2023-03-26T16:30:20.220Z,7.08
2023-03-26T16:32:56.436Z,7.11
2023-03-26T16:35:40.664Z,7.10
2023-03-26T16:38:14.804Z,7.07
2023-03-26T16:41:05.647Z,7.04
2023-03-26T16:43:54.793Z,7.08
2023-03-26T16:46:45.331Z,7.07
2023-03-26T16:49:30.573Z,7.05
2023-03-26T16:52:08.581Z,7.02
2023-03-26T16:54:50.428Z,7.00
2023-03-26T16:57:27.192Z,7.03
2023-03-26T17:00:08.306Z,7.05
2023-03-26T17:02:48.318Z,7.03
2023-03-26T17:05:21.514Z,7.09
2023-03-26T17:07:55.481Z,7.10
2023-03-26T17:10:31.245Z,7.11
2023-03-26T17:13:03.667Z,7.13
2023-03-26T17:15:41.275Z,7.07
2023-03-26T17:18:29.751Z,7.05
2023-03-26T17:21:02.545Z,7.08
2023-03-26T17:24:01.387Z,7.10
2023-03-26T17:26:34.704Z,7.07
2023-03-26T17:29:12.161Z,7.10
2023-03-26T17:31:43.157Z,7.10
2023-03-26T17:34:34.049Z,7.05
2023-03-26T17:37:02.988Z,7.05
2023-03-26T17:40:38.436Z,7.07
2023-03-26T17:43:11.647Z,7.04
2023-03-26T17:45:40.550Z,7.09
2023-03-26T17:48:16.944Z,7.07
2023-03-26T17:50:50.216Z,7.09
2023-03-26T17:53:22.657Z,7.08
2023-03-26T17:55:52.615Z,7.09
2023-03-26T17:58:30.240Z,7.08
2023-03-26T18:01:06.586Z,7.10
2023-03-26T18:03:37.415Z,7.15
2023-03-26T18:06:09.748Z,7.11
2023-03-26T18:08:48.925Z,7.12
2023-03-26T18:11:43.419Z,7.11
2023-03-26T18:14:42.432Z,7.07
2023-03-26T18:17:11.494Z,7.12
2023-03-26T18:19:51.286Z,7.13
2023-03-26T18:22:22.318Z,7.07
2023-03-26T18:24:51.500Z,7.04
2023-03-26T18:27:23.396Z,7.07
2023-03-26T18:30:03.084Z,7.04
2023-03-26T18:32:34.062Z,7.02
2023-03-26T18:35:13.532Z,6.98
2023-03-26T18:37:44.348Z,7.00
2023-03-26T18:40:16.922Z,7.02
2023-03-26T18:42:49.200Z,7.02
2023-03-26T18:45:28.170Z,7.01
2023-03-26T18:47:58.485Z,7.01
2023-03-26T18:50:30.167Z,7.03
2023-03-26T18:53:00.222Z,7.04
2023-03-26T18:55:29.655Z,7.03
2023-03-26T18:57:59.557Z,7.06
2023-03-26T19:00:30.357Z,7.11
2023-03-26T19:03:05.354Z,7.03
2023-03-26T19:05:34.416Z,7.03
2023-03-26T19:08:04.980Z,7.04
2023-03-26T19:10:34.488Z,7.00
2023-03-26T19:13:05.394Z,6.96
2023-03-26T19:15:34.898Z,6.94
2023-03-26T19:18:10.851Z,6.93
2023-03-26T19:20:43.075Z,7.08
2023-03-26T19:23:15.670Z,7.07
2023-03-26T19:25:48.888Z,7.12
2023-03-26T19:28:21.716Z,7.06
2023-03-26T19:30:56.128Z,7.04
2023-03-26T19:33:25.889Z,7.06
2023-03-26T19:35:58.581Z,7.00
2023-03-26T19:38:29.034Z,7.02
2023-03-26T19:40:58.957Z,6.97
2023-03-26T19:43:29.388Z,7.04
2023-03-26T19:46:01.265Z,7.06
2023-03-26T19:48:46.620Z,7.04
2023-03-26T19:51:23.229Z,7.04
2023-03-26T19:53:55.619Z,7.12
2023-03-26T19:56:24.327Z,7.08
2023-03-26T19:58:54.659Z,7.01
2023-03-26T20:01:24.647Z,7.03
2023-03-26T20:03:55.875Z,7.03
2023-03-26T20:09:13.725Z,6.99
2023-03-26T20:11:43.293Z,7.04
2023-03-26T20:14:17.931Z,7.14
2023-03-26T20:16:46.591Z,7.27
2023-03-26T20:19:15.661Z,7.27
2023-03-26T20:21:44.977Z,7.27
2023-03-26T20:24:15.167Z,7.26
2023-03-26T20:26:43.677Z,7.31
2023-03-26T20:29:12.987Z,7.33
2023-03-26T20:31:43.282Z,7.19
2023-03-26T20:34:16.967Z,7.13
2023-03-26T20:36:45.909Z,7.03
2023-03-26T20:39:14.594Z,7.01
2023-03-26T20:41:46.564Z,7.06
2023-03-26T20:44:16.806Z,7.18
2023-03-26T20:46:48.499Z,7.19
2023-03-26T20:49:19.333Z,7.19
2023-03-26T20:51:49.170Z,7.28
2023-03-26T20:54:19.008Z,7.23
2023-03-26T20:56:48.136Z,7.18
2023-03-26T20:59:21.930Z,7.22
2023-03-26T21:01:52.736Z,7.19
2023-03-26T21:04:21.572Z,7.40
2023-03-26T21:06:50.893Z,7.31
2023-03-26T21:09:24.013Z,7.30
2023-03-26T21:12:00.555Z,7.30
2023-03-26T21:14:33.770Z,7.29
2023-03-26T21:17:04.001Z,7.32
2023-03-26T21:19:33.076Z,7.37
2023-03-26T21:22:09.850Z,7.39
2023-03-26T21:25:06.739Z,7.28
2023-03-26T21:27:41.387Z,7.30
2023-03-26T21:30:14.449Z,7.30
2023-03-26T21:32:46.375Z,7.20
2023-03-26T21:35:16.492Z,7.26
2023-03-26T21:37:48.697Z,7.16
2023-03-26T21:40:18.531Z,7.17
2023-03-26T21:42:48.779Z,7.12
2023-03-26T21:45:18.502Z,7.17
2023-03-26T21:47:49.213Z,7.20
2023-03-26T21:50:20.593Z,7.08
2023-03-26T21:52:50.147Z,7.04
2023-03-26T21:55:19.419Z,7.01
2023-03-26T21:57:59.797Z,6.97
2023-03-26T22:00:41.125Z,6.93
2023-03-26T22:03:16.610Z,6.98
2023-03-26T22:05:49.725Z,6.95
2023-03-26T22:08:24.665Z,6.91
2023-03-26T22:10:53.033Z,6.84
2023-03-26T22:13:21.356Z,6.96
2023-03-26T22:15:50.316Z,6.88
2023-03-26T22:18:21.815Z,6.90
2023-03-26T22:20:50.329Z,6.82
2023-03-26T22:23:18.784Z,6.86
2023-03-26T22:25:47.690Z,6.77
2023-03-26T22:28:16.269Z,6.75
2023-03-26T22:30:44.599Z,6.69
2023-03-26T22:33:18.111Z,6.67
2023-03-26T22:35:47.945Z,6.68
2023-03-26T22:38:17.198Z,6.65
2023-03-26T22:40:45.580Z,6.55
2023-03-26T22:43:13.821Z,6.60
2023-03-26T22:45:42.099Z,6.55
2023-03-26T22:48:11.113Z,6.54
2023-03-26T22:50:39.429Z,6.54
2023-03-26T22:53:09.146Z,6.59
2023-03-26T22:55:37.857Z,6.51
2023-03-26T22:58:06.119Z,6.45
2023-03-26T23:00:34.938Z,6.54
2023-03-26T23:03:04.750Z,6.55
2023-03-26T23:05:32.997Z,6.49
2023-03-26T23:08:01.389Z,6.50
2023-03-26T23:10:31.655Z,6.53
2023-03-26T23:12:59.924Z,6.43
2023-03-26T23:15:28.233Z,6.37
2023-03-26T23:17:56.601Z,6.28
2023-03-26T23:20:24.854Z,6.12
2023-03-26T23:22:53.385Z,6.14
2023-03-26T23:25:21.781Z,6.08
2023-03-26T23:27:51.587Z,6.21
2023-03-26T23:30:19.917Z,6.22
2023-03-26T23:32:48.250Z,6.09
2023-03-26T23:35:16.669Z,5.93
2023-03-26T23:37:44.973Z,5.97
2023-03-26T23:40:14.541Z,6.08
2023-03-26T23:42:42.866Z,5.98
2023-03-26T23:45:13.520Z,5.85
2023-03-26T23:47:42.630Z,5.72
2023-03-26T23:50:13.121Z,5.74
2023-03-26T23:52:41.454Z,5.73
2023-03-26T23:55:10.464Z,5.81
2023-03-26T23:57:38.748Z,5.98
